Time;durP1;ratioP1;P1;durP2;ratioP2;P2;SDS_P1;SDS_P2;PMS_P1;PMS_P2;Temp;Humidity;BMP_temperature;BMP_pressure;BME280_temperature;BME280_humidity;BME280_pressure;Samples;Min_cycle;Max_cycle;Signal;HPM_P1;HPM_P2
2021/09/29 00:00:15;;;;;;;14.35;13.05;;;15.20;98.90;;;;;;4971034;28;20590;-90
2021/09/29 00:02:42;;;;;;;14.02;12.82;;;15.20;99.30;;;;;;4971797;28;20236;-90
2021/09/29 00:05:09;;;;;;;15.43;13.93;;;15.30;99.60;;;;;;4969152;28;20236;-90
2021/09/29 00:07:36;;;;;;;14.73;13.23;;;15.30;99.20;;;;;;4963576;28;20193;-89
2021/09/29 00:10:04;;;;;;;15.75;14.25;;;15.30;99.20;;;;;;4973210;28;20215;-89
2021/09/29 00:12:33;;;;;;;14.88;13.38;;;15.30;99.00;;;;;;4968119;28;20221;-88
2021/09/29 00:15:00;;;;;;;14.80;13.32;;;15.40;99.00;;;;;;4966436;28;20208;-90
2021/09/29 00:17:27;;;;;;;16.33;14.00;;;15.40;98.90;;;;;;4977177;28;20208;-91
2021/09/29 00:19:53;;;;;;;15.23;13.80;;;15.50;98.80;;;;;;4954352;29;20227;-90
2021/09/29 00:22:20;;;;;;;14.73;12.05;;;15.50;98.70;;;;;;4974251;28;20545;-89
2021/09/29 00:24:47;;;;;;;13.27;11.98;;;15.60;98.80;;;;;;4978821;28;20573;-90
2021/09/29 00:27:14;;;;;;;13.70;12.30;;;15.60;98.80;;;;;;4973276;28;20216;-90
2021/09/29 00:29:43;;;;;;;14.30;12.85;;;15.60;99.00;;;;;;4971836;28;20207;-90
2021/09/29 00:32:09;;;;;;;14.32;12.82;;;15.70;98.80;;;;;;4970695;28;20239;-90
2021/09/29 00:34:39;;;;;;;13.48;12.15;;;15.60;98.60;;;;;;4967134;28;20206;-91
2021/09/29 00:37:06;;;;;;;14.07;12.45;;;15.60;98.70;;;;;;4972985;28;20225;-89
2021/09/29 00:39:33;;;;;;;13.93;12.60;;;15.60;98.80;;;;;;4962732;28;20197;-91
2021/09/29 00:42:00;;;;;;;13.93;12.48;;;15.60;98.90;;;;;;4963099;28;20231;-90
2021/09/29 00:44:28;;;;;;;13.63;12.38;;;15.50;99.10;;;;;;4969226;28;20205;-89
2021/09/29 00:46:56;;;;;;;14.02;12.60;;;15.40;99.30;;;;;;4973718;28;20259;-90
2021/09/29 00:49:23;;;;;;;13.55;12.25;;;15.30;99.50;;;;;;4974451;28;20694;-89
2021/09/29 00:51:51;;;;;;;15.32;13.85;;;15.40;99.60;;;;;;4973851;28;20239;-89
2021/09/29 00:54:18;;;;;;;13.63;12.30;;;15.40;99.60;;;;;;4965723;28;20255;-89
2021/09/29 00:56:46;;;;;;;15.13;13.63;;;15.40;99.60;;;;;;4969417;28;20246;-89
2021/09/29 00:59:13;;;;;;;14.38;12.93;;;15.30;99.80;;;;;;4974840;28;20278;-89
2021/09/29 01:01:40;;;;;;;15.70;13.77;;;15.40;99.90;;;;;;4974429;28;20236;-89
2021/09/29 01:04:09;;;;;;;17.83;16.00;;;15.50;99.90;;;;;;4974615;28;20203;-89
2021/09/29 01:06:38;;;;;;;20.05;16.65;;;15.60;99.40;;;;;;4973885;28;20232;-89
2021/09/29 01:09:11;;;;;;;22.27;17.70;;;15.60;99.10;;;;;;4974304;28;20670;-89
2021/09/29 01:11:45;;;;;;;26.42;20.55;;;15.60;99.10;;;;;;4973917;28;20727;-89
2021/09/29 01:19:36;;;;;;;31.38;23.23;;;15.60;98.80;;;;;;5016755;28;20587;-89
2021/09/29 01:22:15;;;;;;;29.90;21.42;;;15.60;98.80;;;;;;5005360;28;20223;-89
2021/09/29 01:24:52;;;;;;;26.20;19.65;;;15.50;98.80;;;;;;5032370;28;20205;-90
2021/09/29 01:27:23;;;;;;;28.05;20.58;;;15.60;99.10;;;;;;5020806;28;20279;-90
2021/09/29 01:29:51;;;;;;;26.55;20.52;;;15.60;98.90;;;;;;5021835;28;20678;-89
2021/09/29 01:32:20;;;;;;;25.75;20.45;;;15.60;98.70;;;;;;5012551;28;20217;-90
2021/09/29 01:34:48;;;;;;;28.42;19.60;;;15.50;99.10;;;;;;5026403;28;20194;-90
2021/09/29 01:37:15;;;;;;;31.00;20.27;;;15.40;99.20;;;;;;5027279;28;20207;-90
2021/09/29 01:39:42;;;;;;;26.35;18.80;;;15.40;99.40;;;;;;5022621;28;20265;-89
2021/09/29 01:42:10;;;;;;;23.80;18.45;;;15.30;99.60;;;;;;5016873;28;20230;-90
2021/09/29 01:44:38;;;;;;;23.90;18.00;;;15.20;99.60;;;;;;5026522;28;20199;-89
2021/09/29 01:47:06;;;;;;;21.73;18.23;;;15.20;99.80;;;;;;5013177;28;20232;-89
2021/09/29 01:49:38;;;;;;;24.52;18.13;;;15.30;99.00;;;;;;5020143;28;20542;-89
2021/09/29 01:52:07;;;;;;;23.58;17.02;;;15.40;99.00;;;;;;5022819;28;20241;-90
2021/09/29 01:54:38;;;;;;;18.67;15.90;;;15.30;99.00;;;;;;5016436;28;20204;-90
2021/09/29 01:57:05;;;;;;;23.15;17.40;;;15.40;99.20;;;;;;5021379;28;20589;-90
2021/09/29 01:59:32;;;;;;;22.08;18.48;;;15.40;99.00;;;;;;5016385;28;20202;-89
2021/09/29 02:02:03;;;;;;;22.60;18.70;;;15.40;98.70;;;;;;5014902;28;20234;-91
2021/09/29 02:04:31;;;;;;;22.08;18.88;;;15.40;98.40;;;;;;5019277;28;20203;-89
2021/09/29 02:06:58;;;;;;;22.10;19.27;;;15.30;98.70;;;;;;5017624;28;20231;-91
2021/09/29 02:09:27;;;;;;;23.83;19.38;;;15.20;99.20;;;;;;5017231;28;20202;-90
2021/09/29 02:11:56;;;;;;;24.17;19.70;;;15.10;99.30;;;;;;5018298;28;20228;-90
2021/09/29 02:14:24;;;;;;;21.58;19.13;;;15.10;99.50;;;;;;5010166;28;20571;-89
2021/09/29 02:16:53;;;;;;;25.60;20.70;;;15.20;99.90;;;;;;5009273;28;20229;-90
2021/09/29 02:19:22;;;;;;;27.58;21.13;;;15.10;99.50;;;;;;5007136;28;20203;-90
2021/09/29 02:21:50;;;;;;;27.60;22.45;;;15.20;99.60;;;;;;5008787;28;20694;-89
2021/09/29 02:24:18;;;;;;;27.75;21.75;;;15.00;99.50;;;;;;5014924;28;20203;-90
2021/09/29 02:26:45;;;;;;;26.75;21.70;;;15.00;99.50;;;;;;5005931;28;20230;-89
2021/09/29 02:29:36;;;;;;;25.23;21.10;;;15.10;99.70;;;;;;5015428;28;20202;-90
2021/09/29 02:32:03;;;;;;;24.90;21.90;;;15.20;99.50;;;;;;5013626;28;20234;-90
2021/09/29 02:34:35;;;;;;;26.40;21.27;;;15.20;99.20;;;;;;5011917;28;20207;-89
2021/09/29 02:37:02;;;;;;;27.60;22.40;;;15.20;99.00;;;;;;5005921;28;20223;-89
2021/09/29 02:39:29;;;;;;;25.75;21.20;;;15.10;98.80;;;;;;5012539;28;20191;-89
2021/09/29 02:41:56;;;;;;;32.33;24.13;;;15.10;99.10;;;;;;5005200;28;20219;-91
2021/09/29 02:44:23;;;;;;;29.83;23.23;;;15.10;98.90;;;;;;5009197;28;20740;-90
2021/09/29 02:46:50;;;;;;;25.77;22.17;;;15.00;99.00;;;;;;5003512;28;20227;-89
2021/09/29 02:49:17;;;;;;;31.92;24.38;;;15.00;99.30;;;;;;5006561;28;20546;-90
2021/09/29 02:51:45;;;;;;;29.55;22.92;;;14.90;99.50;;;;;;5006086;28;20230;-89
2021/09/29 02:54:12;;;;;;;30.48;23.08;;;15.10;99.70;;;;;;5003138;28;20204;-91
2021/09/29 02:56:39;;;;;;;28.67;22.42;;;15.10;99.40;;;;;;5008596;28;20230;-89
2021/09/29 02:59:08;;;;;;;28.27;21.60;;;15.00;99.50;;;;;;5014691;28;20199;-89
2021/09/29 03:01:36;;;;;;;28.38;23.60;;;15.00;99.70;;;;;;5010713;28;20262;-90
2021/09/29 03:04:03;;;;;;;28.35;21.98;;;15.00;99.60;;;;;;5008820;28;20227;-90
2021/09/29 03:06:30;;;;;;;30.42;21.33;;;15.10;99.70;;;;;;5008820;28;20221;-89
2021/09/29 03:08:58;;;;;;;30.67;22.17;;;15.10;99.80;;;;;;5009590;28;20199;-90
2021/09/29 03:11:25;;;;;;;29.98;22.02;;;15.20;99.60;;;;;;5011937;28;20239;-89
2021/09/29 03:13:52;;;;;;;29.25;22.70;;;15.20;99.40;;;;;;5010027;28;20244;-89
2021/09/29 03:16:19;;;;;;;31.70;22.95;;;15.20;99.00;;;;;;5013135;28;20594;-90
2021/09/29 03:18:48;;;;;;;36.63;22.45;;;15.20;99.00;;;;;;5000085;28;20298;-90
2021/09/29 03:21:15;;;;;;;32.03;22.75;;;15.20;99.20;;;;;;4999588;28;20234;-89
2021/09/29 03:23:42;;;;;;;29.00;22.60;;;15.10;99.20;;;;;;5008042;28;20230;-90
2021/09/29 03:26:11;;;;;;;30.40;21.92;;;15.00;99.50;;;;;;5001212;28;20283;-89
2021/09/29 03:28:38;;;;;;;26.92;20.73;;;14.90;99.70;;;;;;5006324;28;20302;-89
2021/09/29 03:31:05;;;;;;;33.60;22.23;;;14.90;99.90;;;;;;5014115;28;20237;-89
2021/09/29 03:33:32;;;;;;;27.55;21.10;;;14.90;99.90;;;;;;5013744;28;20213;-89
2021/09/29 03:35:59;;;;;;;28.90;20.13;;;15.00;99.90;;;;;;5011269;28;20231;-89
2021/09/29 03:38:26;;;;;;;26.33;19.67;;;15.00;99.90;;;;;;4995721;28;20202;-89
2021/09/29 03:40:53;;;;;;;25.23;19.38;;;15.10;99.90;;;;;;5011712;28;20686;-90
2021/09/29 03:43:21;;;;;;;26.83;19.08;;;15.10;99.60;;;;;;4998619;28;20228;-90
2021/09/29 03:45:49;;;;;;;23.80;19.05;;;15.00;99.70;;;;;;5006700;28;20222;-89
2021/09/29 03:48:18;;;;;;;24.45;17.58;;;15.10;99.50;;;;;;4995505;28;20214;-89
2021/09/29 03:50:45;;;;;;;20.10;17.33;;;15.20;99.30;;;;;;4995727;28;20227;-89
2021/09/29 03:53:12;;;;;;;28.92;18.33;;;15.30;99.10;;;;;;5002235;28;20208;-90
2021/09/29 03:55:39;;;;;;;22.08;17.20;;;15.30;98.90;;;;;;5019628;28;20563;-90
2021/09/29 03:58:06;;;;;;;21.90;17.92;;;15.20;98.80;;;;;;5013239;28;20199;-90
2021/09/29 04:00:34;;;;;;;24.63;17.77;;;15.20;98.90;;;;;;5000706;28;20708;-90
2021/09/29 04:03:01;;;;;;;21.20;17.20;;;15.10;99.10;;;;;;5005678;28;20695;-89
2021/09/29 04:05:28;;;;;;;24.42;16.85;;;15.10;99.50;;;;;;5004731;28;20598;-90
2021/09/29 04:07:55;;;;;;;20.35;16.33;;;15.10;99.20;;;;;;5004300;28;20203;-91
2021/09/29 04:10:22;;;;;;;21.27;17.27;;;15.10;99.40;;;;;;5008486;28;20690;-90
2021/09/29 04:12:50;;;;;;;20.35;17.08;;;15.10;99.20;;;;;;5011127;28;20229;-90
2021/09/29 04:15:17;;;;;;;19.98;16.02;;;15.20;99.30;;;;;;4999457;28;20231;-89
2021/09/29 04:17:46;;;;;;;23.75;17.45;;;15.10;99.20;;;;;;5002873;28;20207;-90
2021/09/29 04:20:13;;;;;;;20.85;16.08;;;15.10;99.10;;;;;;4998009;28;20223;-90
2021/09/29 04:22:41;;;;;;;19.38;16.08;;;15.10;99.40;;;;;;5005784;28;20226;-90
2021/09/29 04:25:08;;;;;;;23.25;15.50;;;15.10;99.10;;;;;;5002348;28;20287;-89
2021/09/29 04:27:35;;;;;;;21.05;15.80;;;15.00;99.50;;;;;;5012928;28;20195;-90
2021/09/29 04:30:02;;;;;;;18.70;15.60;;;15.00;99.50;;;;;;5006788;28;20268;-90
2021/09/29 04:32:29;;;;;;;20.95;15.73;;;15.10;99.50;;;;;;5007730;28;20201;-88
2021/09/29 04:34:58;;;;;;;20.77;15.65;;;15.20;99.10;;;;;;5006049;28;20208;-90
2021/09/29 04:37:25;;;;;;;18.52;14.82;;;15.30;98.80;;;;;;5012896;28;20201;-90
2021/09/29 04:39:52;;;;;;;18.02;14.73;;;15.20;98.80;;;;;;5006039;28;20199;-90
2021/09/29 04:42:20;;;;;;;18.27;14.95;;;15.20;98.90;;;;;;5013309;28;20607;-89
2021/09/29 04:44:47;;;;;;;18.10;14.82;;;15.10;99.00;;;;;;4998710;28;20710;-90
2021/09/29 04:47:14;;;;;;;19.05;14.77;;;15.00;99.10;;;;;;5011249;28;20235;-90
2021/09/29 04:49:41;;;;;;;18.50;14.68;;;15.10;99.40;;;;;;5007066;28;20208;-90
2021/09/29 04:52:10;;;;;;;18.50;14.02;;;15.10;99.30;;;;;;5004974;28;20241;-91
2021/09/29 04:54:37;;;;;;;22.35;13.98;;;15.20;99.30;;;;;;4995897;28;20210;-90
2021/09/29 04:57:05;;;;;;;20.05;14.05;;;15.10;99.10;;;;;;5011786;28;20230;-91
2021/09/29 04:59:32;;;;;;;16.77;14.13;;;15.20;99.20;;;;;;5011707;28;20258;-90
2021/09/29 05:01:59;;;;;;;18.15;14.95;;;15.20;99.20;;;;;;5002829;28;20847;-90
2021/09/29 05:04:26;;;;;;;16.80;13.38;;;15.20;99.10;;;;;;5002495;28;20231;-91
2021/09/29 05:06:54;;;;;;;16.15;13.13;;;15.10;99.10;;;;;;5008979;28;20234;-90
2021/09/29 05:09:23;;;;;;;18.65;13.40;;;15.20;98.80;;;;;;5004658;28;20302;-92
2021/09/29 05:11:52;;;;;;;14.10;12.27;;;15.10;98.90;;;;;;5010468;28;20225;-90
2021/09/29 05:14:19;;;;;;;17.27;13.13;;;15.10;99.20;;;;;;5011128;28;20222;-90
2021/09/29 05:16:47;;;;;;;15.20;12.75;;;15.10;99.10;;;;;;5004669;28;20310;-89
2021/09/29 05:19:14;;;;;;;17.27;13.30;;;15.10;99.00;;;;;;5007101;28;20214;-92
2021/09/29 05:21:41;;;;;;;14.75;12.18;;;15.00;99.10;;;;;;5001831;28;20231;-89
2021/09/29 05:24:09;;;;;;;16.38;11.95;;;15.10;99.10;;;;;;5010767;28;20211;-90
2021/09/29 05:26:41;;;;;;;16.10;11.27;;;15.10;99.10;;;;;;5010662;28;20224;-90
2021/09/29 05:29:11;;;;;;;12.10;10.48;;;15.10;99.00;;;;;;5016658;28;20203;-91
2021/09/29 05:31:38;;;;;;;13.60;11.02;;;15.20;98.70;;;;;;5007776;28;20231;-95
2021/09/29 05:36:55;;;;;;;13.00;10.55;;;15.10;98.80;;;;;;5014025;28;20219;-92
2021/09/29 05:39:23;;;;;;;12.02;9.75;;;15.10;98.60;;;;;;5009743;28;20206;-93
2021/09/29 05:41:54;;;;;;;12.07;9.88;;;15.20;98.60;;;;;;5003605;28;20579;-91
2021/09/29 05:44:21;;;;;;;14.07;9.75;;;15.20;98.30;;;;;;5007956;28;20253;-90
2021/09/29 05:46:48;;;;;;;11.32;8.90;;;15.20;97.90;;;;;;4989834;28;20709;-90
2021/09/29 05:49:16;;;;;;;10.98;9.30;;;15.30;97.90;;;;;;5003399;28;20199;-90
2021/09/29 05:51:47;;;;;;;11.70;9.25;;;15.30;98.00;;;;;;5007868;28;20218;-92
2021/09/29 05:54:14;;;;;;;11.43;9.32;;;15.30;97.90;;;;;;5012156;28;20217;-92
2021/09/29 05:56:41;;;;;;;11.93;9.25;;;15.20;98.10;;;;;;5009737;28;20219;-90
2021/09/29 05:59:09;;;;;;;10.57;8.38;;;15.20;98.50;;;;;;5004881;28;20535;-91
2021/09/29 06:01:36;;;;;;;10.27;8.15;;;15.10;98.30;;;;;;5007030;28;20227;-90
2021/09/29 06:04:03;;;;;;;8.90;7.97;;;15.10;98.50;;;;;;5010941;28;20231;-89
2021/09/29 06:06:30;;;;;;;9.60;7.93;;;15.10;98.80;;;;;;5013464;28;20223;-89
2021/09/29 06:08:57;;;;;;;7.78;6.93;;;15.10;98.20;;;;;;5005937;28;20200;-89
2021/09/29 06:11:24;;;;;;;10.07;6.80;;;15.10;98.40;;;;;;5017799;28;20227;-88
2021/09/29 06:13:52;;;;;;;8.82;6.72;;;15.10;98.30;;;;;;5007227;28;20245;-91
2021/09/29 06:16:20;;;;;;;7.82;6.40;;;15.20;98.00;;;;;;5005041;28;20223;-90
2021/09/29 06:18:50;;;;;;;9.07;6.75;;;15.20;98.10;;;;;;5013253;28;20289;-91
2021/09/29 06:21:18;;;;;;;9.10;6.50;;;15.20;98.30;;;;;;4997705;28;20282;-92
2021/09/29 06:27:07;;;;;;;6.65;6.00;;;15.30;97.90;;;;;;4996758;28;20227;-90
2021/09/29 06:29:34;;;;;;;10.10;6.05;;;15.20;98.00;;;;;;5007017;28;20210;-88
2021/09/29 06:32:03;;;;;;;6.32;5.72;;;15.20;98.30;;;;;;5010013;28;20227;-90
2021/09/29 06:34:30;;;;;;;6.70;5.47;;;15.30;98.40;;;;;;5013440;28;20203;-93
2021/09/29 06:37:11;;;;;;;6.95;5.15;;;15.30;98.10;;;;;;5012666;28;20223;-94
2021/09/29 06:42:58;;;;;;;6.72;4.65;;;15.20;97.40;;;;;;5007900;28;20211;-91
2021/09/29 06:45:25;;;;;;;4.72;4.20;;;15.10;97.60;;;;;;5003462;28;20684;-91
2021/09/29 06:47:57;;;;;;;4.75;4.35;;;15.10;97.70;;;;;;5013193;28;20195;-91
2021/09/29 06:50:25;;;;;;;4.15;3.75;;;15.10;97.80;;;;;;5002157;28;20698;-89
2021/09/29 06:52:51;;;;;;;5.72;3.80;;;15.00;98.10;;;;;;5002576;28;20202;-90
2021/09/29 06:55:18;;;;;;;5.90;3.75;;;15.00;98.10;;;;;;5008393;28;20235;-91
2021/09/29 06:57:45;;;;;;;4.95;4.10;;;14.90;98.50;;;;;;5016519;28;20634;-91
2021/09/29 07:00:15;;;;;;;7.18;4.35;;;14.80;98.10;;;;;;5011641;28;20235;-90
2021/09/29 07:02:44;;;;;;;5.72;3.70;;;14.80;98.60;;;;;;5016244;28;20199;-90
2021/09/29 07:05:14;;;;;;;4.22;3.60;;;14.90;98.10;;;;;;5016356;28;20238;-88
2021/09/29 07:07:41;;;;;;;4.95;3.88;;;14.90;97.80;;;;;;5009639;28;20590;-90
2021/09/29 07:10:09;;;;;;;5.38;4.38;;;14.90;97.70;;;;;;5012821;28;20207;-92
2021/09/29 07:12:37;;;;;;;7.20;3.70;;;14.90;97.70;;;;;;5005194;28;20226;-91
2021/09/29 07:15:22;;;;;;;4.53;3.35;;;14.80;98.00;;;;;;5018660;28;20709;-90
2021/09/29 07:17:55;;;;;;;5.88;3.08;;;15.00;96.90;;;;;;5012041;28;20207;-90
2021/09/29 07:20:25;;;;;;;3.92;3.13;;;15.10;96.90;;;;;;5007852;28;20298;-91
2021/09/29 07:22:52;;;;;;;7.95;3.20;;;15.20;96.90;;;;;;5015046;28;20643;-89
2021/09/29 07:25:22;;;;;;;3.78;3.13;;;15.30;96.10;;;;;;5025054;28;20237;-90
2021/09/29 07:27:49;;;;;;;3.13;2.53;;;15.40;95.50;;;;;;5015462;28;20669;-90
2021/09/29 07:30:17;;;;;;;5.30;2.55;;;15.40;95.20;;;;;;5015919;28;20253;-90
2021/09/29 07:32:46;;;;;;;5.07;2.80;;;15.40;95.00;;;;;;5016928;28;20218;-90
2021/09/29 07:35:14;;;;;;;6.47;2.67;;;15.40;95.20;;;;;;5015194;28;20284;-91
2021/09/29 07:37:42;;;;;;;3.35;2.70;;;15.40;95.20;;;;;;5030259;28;20190;-90
2021/09/29 07:40:15;;;;;;;7.55;2.90;;;15.50;94.90;;;;;;5033059;28;20187;-91
2021/09/29 07:42:42;;;;;;;3.38;2.40;;;15.60;93.90;;;;;;5014685;28;20210;-90
2021/09/29 07:45:34;;;;;;;2.88;2.42;;;15.70;93.70;;;;;;5014573;28;20223;-89
2021/09/29 07:48:01;;;;;;;5.03;2.70;;;15.70;93.00;;;;;;5010705;28;20218;-93
2021/09/29 07:50:31;;;;;;;3.95;2.45;;;15.80;93.10;;;;;;5014139;28;20286;-91
2021/09/29 07:55:42;;;;;;;5.25;2.08;;;15.60;91.30;;;;;;5007608;28;20302;-93
2021/09/29 07:58:09;;;;;;;3.40;2.20;;;15.70;90.10;;;;;;5006696;28;20205;-92
2021/09/29 08:00:36;;;;;;;3.55;1.98;;;15.80;89.20;;;;;;5010438;28;20223;-92
2021/09/29 08:03:03;;;;;;;2.03;1.80;;;15.80;87.70;;;;;;5014705;28;20289;-92
2021/09/29 08:05:31;;;;;;;3.53;1.75;;;15.80;86.00;;;;;;5011210;28;20944;-93
2021/09/29 08:08:00;;;;;;;4.03;2.03;;;15.70;86.20;;;;;;5010566;28;20204;-92
2021/09/29 08:10:27;;;;;;;3.17;2.00;;;15.90;86.20;;;;;;5004782;28;20227;-93
2021/09/29 08:12:55;;;;;;;3.33;1.90;;;16.00;83.50;;;;;;5014855;28;20258;-90
2021/09/29 08:15:23;;;;;;;2.53;1.80;;;16.20;81.70;;;;;;5003912;28;20230;-92
2021/09/29 08:17:54;;;;;;;4.45;2.10;;;16.30;78.20;;;;;;5000930;28;20208;-92
2021/09/29 08:20:25;;;;;;;4.28;2.03;;;16.40;77.10;;;;;;5004953;28;20270;-92
2021/09/29 08:22:54;;;;;;;3.25;1.70;;;16.30;71.70;;;;;;5002469;28;20207;-92
2021/09/29 08:25:35;;;;;;;4.40;1.77;;;16.50;73.80;;;;;;5015853;28;20652;-92
2021/09/29 08:28:14;;;;;;;2.72;1.63;;;16.70;71.30;;;;;;5012045;28;20662;-92
2021/09/29 08:30:55;;;;;;;2.60;1.70;;;17.00;66.40;;;;;;5005057;28;20219;-92
2021/09/29 08:33:41;;;;;;;4.13;1.80;;;17.30;61.50;;;;;;5007389;28;20230;-92
2021/09/29 08:36:17;;;;;;;4.03;2.05;;;17.40;59.30;;;;;;5015839;28;20226;-91
2021/09/29 08:38:50;;;;;;;2.50;1.70;;;17.60;57.50;;;;;;4997465;28;20196;-92
2021/09/29 08:41:26;;;;;;;3.47;1.52;;;17.60;55.10;;;;;;5012296;28;20223;-91
2021/09/29 08:43:57;;;;;;;1.60;1.40;;;17.50;55.10;;;;;;4984997;28;20224;-90
2021/09/29 08:46:29;;;;;;;3.88;1.55;;;17.60;54.90;;;;;;5003562;28;20223;-89
2021/09/29 08:49:03;;;;;;;4.82;1.60;;;17.70;53.80;;;;;;5016778;28;20203;-90
2021/09/29 08:54:17;;;;;;;2.25;1.60;;;17.80;51.30;;;;;;5014773;28;20194;-90
2021/09/29 09:16:30;;;;;;;4.35;1.90;;;18.50;45.30;;;;;;5013796;28;20253;-92
2021/09/29 09:18:57;;;;;;;4.15;1.70;;;18.40;47.30;;;;;;5017261;28;20207;-90
2021/09/29 09:21:31;;;;;;;3.58;1.50;;;18.30;44.50;;;;;;5017902;28;20231;-91
2021/09/29 09:23:58;;;;;;;2.35;1.50;;;18.40;42.30;;;;;;5017107;28;20240;-90
2021/09/29 09:26:27;;;;;;;4.45;1.50;;;18.70;40.00;;;;;;5018680;28;20223;-89
2021/09/29 09:29:06;;;;;;;3.10;2.22;;;18.70;39.50;;;;;;5020737;28;20262;-90
2021/09/29 09:31:35;;;;;;;1.95;1.30;;;18.40;38.60;;;;;;5026771;28;20231;-88
2021/09/29 09:34:04;;;;;;;3.13;1.95;;;18.30;39.30;;;;;;5021850;28;20230;-88
2021/09/29 09:36:35;;;;;;;3.85;1.60;;;18.40;40.30;;;;;;5021205;28;20235;-91
2021/09/29 09:39:07;;;;;;;2.70;1.60;;;18.50;38.50;;;;;;5017736;28;20199;-91
2021/09/29 09:41:36;;;;;;;6.65;1.85;;;18.60;39.70;;;;;;5009013;28;20227;-92
2021/09/29 09:44:07;;;;;;;2.75;1.92;;;18.40;40.60;;;;;;5002842;28;22169;-92
2021/09/29 09:46:37;;;;;;;2.45;1.80;;;18.60;41.20;;;;;;5002922;28;20242;-92
2021/09/29 09:49:06;;;;;;;3.10;1.60;;;18.70;40.50;;;;;;5012787;28;20622;-93
2021/09/29 09:51:47;;;;;;;2.08;1.40;;;18.90;40.00;;;;;;5011683;28;20221;-92
2021/09/29 09:54:36;;;;;;;3.50;1.70;;;19.30;40.20;;;;;;5025359;28;20214;-91
2021/09/29 09:57:03;;;;;;;5.90;1.60;;;19.80;36.80;;;;;;5004484;28;20231;-91
2021/09/29 09:59:32;;;;;;;4.22;1.40;;;19.60;36.10;;;;;;5017943;28;20203;-91
2021/09/29 10:01:59;;;;;;;5.07;1.52;;;19.80;35.40;;;;;;5014050;28;20318;-91
2021/09/29 10:04:25;;;;;;;2.38;1.40;;;19.70;34.40;;;;;;5007040;28;20235;-86
2021/09/29 10:06:53;;;;;;;3.53;1.67;;;19.50;34.00;;;;;;5021884;28;20310;-86
2021/09/29 10:09:29;;;;;;;2.70;1.48;;;19.00;35.00;;;;;;5022289;28;20226;-87
2021/09/29 10:12:17;;;;;;;3.03;1.10;;;18.60;33.80;;;;;;5012290;28;20262;-85
2021/09/29 10:14:57;;;;;;;2.30;1.33;;;18.40;33.90;;;;;;5022537;28;20227;-89
2021/09/29 10:23:14;;;;;;;3.35;1.80;;;18.80;36.10;;;;;;5026815;28;20206;-91
2021/09/29 10:26:10;;;;;;;6.47;1.98;;;18.70;36.10;;;;;;5010694;28;20290;-91
2021/09/29 10:28:40;;;;;;;5.57;1.60;;;18.80;34.90;;;;;;5009093;28;20198;-88
2021/09/29 10:31:18;;;;;;;2.03;1.40;;;18.80;37.40;;;;;;5021193;28;20235;-87
2021/09/29 10:33:55;;;;;;;2.83;1.60;;;18.70;35.90;;;;;;5022363;28;20197;-88
2021/09/29 10:36:39;;;;;;;4.93;1.38;;;18.70;36.20;;;;;;5025901;28;20290;-87
2021/09/29 10:41:53;;;;;;;2.53;1.42;;;19.30;35.40;;;;;;4983612;28;20330;-90
2021/09/29 10:44:27;;;;;;;2.42;1.40;;;20.30;32.30;;;;;;5005993;28;20326;-90
2021/09/29 10:47:04;;;;;;;2.95;1.40;;;20.80;31.10;;;;;;5013383;28;20235;-89
2021/09/29 10:49:49;;;;;;;3.25;1.60;;;22.00;27.10;;;;;;4994055;28;20211;-88
2021/09/29 11:06:37;;;;;;;3.85;1.48;;;21.30;33.20;;;;;;5009463;28;20231;-90
2021/09/29 11:28:40;;;;;;;2.08;1.33;;;20.50;32.50;;;;;;5017435;28;20326;-91
2021/09/29 11:31:11;;;;;;;4.05;1.40;;;20.50;35.00;;;;;;5011203;28;20238;-88
2021/09/29 11:33:58;;;;;;;5.80;1.88;;;20.60;32.50;;;;;;5019824;28;20203;-88
2021/09/29 11:48:29;;;;;;;4.13;1.55;;;20.30;32.30;;;;;;5025272;28;20179;-87
2021/09/29 12:08:33;;;;;;;3.90;1.80;;;18.90;42.30;;;;;;5011440;28;20292;-90
2021/09/29 12:11:04;;;;;;;4.40;1.63;;;18.40;42.10;;;;;;5009302;28;20227;-90
2021/09/29 12:13:44;;;;;;;1.52;1.40;;;18.20;45.70;;;;;;5010546;28;20581;-92
2021/09/29 12:16:12;;;;;;;1.67;1.48;;;18.30;45.80;;;;;;4999655;28;20231;-91
2021/09/29 12:18:39;;;;;;;3.90;1.60;;;18.60;43.60;;;;;;5002552;28;20226;-93
2021/09/29 12:21:06;;;;;;;3.30;1.73;;;18.70;42.70;;;;;;5002709;28;20240;-90
2021/09/29 12:23:50;;;;;;;3.80;1.50;;;18.90;42.50;;;;;;5012069;28;20200;-86
2021/09/29 12:26:29;;;;;;;6.47;1.58;;;19.10;42.40;;;;;;4998831;28;20231;-90
2021/09/29 12:29:12;;;;;;;2.25;1.40;;;19.00;42.40;;;;;;5020336;28;20234;-86
2021/09/29 12:31:51;;;;;;;6.40;1.90;;;18.80;41.00;;;;;;5019984;28;20297;-87
2021/09/29 12:34:28;;;;;;;2.78;1.40;;;18.80;42.50;;;;;;5016787;28;20781;-86
2021/09/29 12:36:55;;;;;;;2.42;1.40;;;18.80;39.90;;;;;;5004893;28;20250;-89
2021/09/29 12:39:25;;;;;;;2.65;1.50;;;19.00;41.20;;;;;;5000199;28;20679;-86
2021/09/29 12:41:53;;;;;;;3.33;1.60;;;19.00;42.90;;;;;;4999328;28;20228;-88
2021/09/29 12:44:22;;;;;;;2.80;1.50;;;18.80;42.00;;;;;;5001107;28;20223;-89
2021/09/29 12:47:03;;;;;;;5.40;1.73;;;18.80;42.70;;;;;;5014605;28;20330;-87
2021/09/29 12:49:30;;;;;;;2.58;1.50;;;18.90;45.30;;;;;;5002397;28;20286;-90
2021/09/29 12:52:01;;;;;;;1.88;1.67;;;19.00;45.20;;;;;;5006831;28;20317;-91
2021/09/29 12:54:28;;;;;;;1.83;1.40;;;19.00;41.90;;;;;;5000011;28;20208;-91
2021/09/29 12:56:55;;;;;;;3.60;1.60;;;19.00;40.90;;;;;;5012270;28;20247;-90
2021/09/29 12:59:27;;;;;;;4.85;1.70;;;19.20;40.00;;;;;;5003229;28;20291;-90
2021/09/29 13:01:54;;;;;;;3.38;1.60;;;19.20;42.70;;;;;;5007181;28;20321;-91
2021/09/29 13:04:22;;;;;;;2.22;1.42;;;18.90;40.50;;;;;;5009170;28;20728;-90
2021/09/29 13:06:49;;;;;;;4.22;1.77;;;19.10;41.50;;;;;;5008859;28;20236;-91
2021/09/29 13:09:16;;;;;;;2.25;1.40;;;19.00;41.30;;;;;;5008448;28;20210;-91
2021/09/29 13:11:44;;;;;;;3.47;1.80;;;19.00;42.90;;;;;;5000971;28;20219;-91
2021/09/29 13:14:10;;;;;;;2.50;1.70;;;18.90;41.40;;;;;;5005953;28;20259;-90
2021/09/29 13:16:39;;;;;;;3.33;1.38;;;18.80;44.20;;;;;;5005650;28;20233;-90
2021/09/29 13:19:10;;;;;;;4.30;1.60;;;18.80;45.90;;;;;;4997144;28;20338;-91
2021/09/29 13:21:40;;;;;;;2.60;1.50;;;18.90;47.10;;;;;;4995228;28;20235;-90
2021/09/29 13:24:12;;;;;;;1.70;1.30;;;18.90;46.40;;;;;;5005639;28;20683;-91
2021/09/29 13:38:10;;;;;;;2.25;2.05;;;18.80;45.90;;;;;;4972421;28;20580;-90
2021/09/29 13:40:39;;;;;;;4.72;2.22;;;18.70;45.00;;;;;;5001690;28;20511;-91
2021/09/29 13:43:06;;;;;;;2.50;1.80;;;18.70;45.40;;;;;;5010671;28;20203;-93
2021/09/29 13:45:33;;;;;;;3.05;1.70;;;18.70;49.30;;;;;;5002568;28;20443;-90
2021/09/29 13:48:02;;;;;;;1.67;1.45;;;18.90;47.40;;;;;;5005289;28;20200;-90
2021/09/29 13:50:29;;;;;;;2.20;1.50;;;19.00;45.30;;;;;;5010561;28;20283;-87
2021/09/29 13:52:59;;;;;;;3.08;1.73;;;19.10;45.10;;;;;;5004217;28;20217;-90
2021/09/29 13:55:29;;;;;;;3.20;1.70;;;19.20;45.00;;;;;;5012704;28;20824;-87
2021/09/29 13:58:02;;;;;;;1.52;1.42;;;19.30;46.20;;;;;;5008381;28;20203;-89
2021/09/29 14:00:34;;;;;;;3.30;1.60;;;19.30;43.10;;;;;;5003133;28;20900;-92
2021/09/29 14:03:21;;;;;;;3.03;1.60;;;19.20;41.80;;;;;;5005390;28;20207;-90
2021/09/29 14:30:50;;;;;;;4.15;1.70;;;18.80;49.00;;;;;;5001805;28;20287;-90
2021/09/29 14:33:23;;;;;;;3.50;1.30;;;19.00;47.90;;;;;;5004323;28;20248;-86
2021/09/29 14:35:51;;;;;;;3.88;1.80;;;19.00;47.40;;;;;;5010217;28;20615;-89
2021/09/29 14:38:18;;;;;;;1.80;1.50;;;19.00;45.20;;;;;;5016072;28;20205;-88
2021/09/29 14:40:49;;;;;;;2.08;1.60;;;19.10;45.10;;;;;;5016157;28;20218;-89
2021/09/29 14:43:16;;;;;;;8.95;5.90;;;19.20;43.90;;;;;;5011398;28;20234;-86
2021/09/29 14:45:43;;;;;;;3.33;1.58;;;19.00;45.30;;;;;;5017043;28;20240;-86
2021/09/29 14:48:11;;;;;;;3.03;1.80;;;19.00;42.20;;;;;;5009567;28;20200;-87
2021/09/29 14:50:38;;;;;;;3.20;1.60;;;18.90;42.50;;;;;;5002344;28;20230;-92
2021/09/29 14:53:07;;;;;;;2.38;2.10;;;19.00;41.80;;;;;;5005323;28;20215;-90
2021/09/29 14:55:34;;;;;;;3.70;1.65;;;18.90;44.90;;;;;;5008881;28;20262;-86
2021/09/29 14:58:16;;;;;;;4.20;1.38;;;18.90;45.20;;;;;;5012977;28;20565;-86
2021/09/29 15:00:43;;;;;;;2.85;1.60;;;18.90;46.80;;;;;;5010336;28;20227;-87
2021/09/29 15:03:37;;;;;;;1.92;1.30;;;18.90;43.40;;;;;;5017168;28;20642;-86
2021/09/29 15:06:04;;;;;;;2.08;1.52;;;19.00;43.00;;;;;;5017228;28;20259;-90
2021/09/29 15:08:32;;;;;;;4.78;1.58;;;18.90;43.60;;;;;;5016819;28;20209;-90
2021/09/29 15:11:00;;;;;;;2.55;1.70;;;18.80;44.60;;;;;;5011247;28;20325;-89
2021/09/29 15:13:29;;;;;;;2.67;1.60;;;18.60;45.80;;;;;;5013194;28;20287;-90
2021/09/29 15:16:00;;;;;;;3.92;1.73;;;18.60;46.70;;;;;;5007820;28;20223;-88
2021/09/29 15:18:30;;;;;;;1.95;1.55;;;18.60;46.10;;;;;;5010932;28;20262;-87